Time;durP1;ratioP1;P1;durP2;ratioP2;P2;SDS_P1;SDS_P2;PMS_P1;PMS_P2;Temp;Humidity;BMP_temperature;BMP_pressure;BME280_temperature;BME280_humidity;BME280_pressure;Samples;Min_cycle;Max_cycle;Signal;HPM_P1;HPM_P2
2024/02/05 00:01:32;;;;;;;20.33;10.63;;;;;;;7.41;60.79;94864.75;4170066;28;20059;-67
2024/02/05 00:03:34;;;;;;;11.85;8.88;;;;;;;7.42;60.47;94860.38;4166105;28;20044;-67
2024/02/05 00:05:36;;;;;;;12.68;9.25;;;;;;;7.54;60.67;94860.09;4183192;28;20052;-68
2024/02/05 00:07:38;;;;;;;14.68;9.63;;;;;;;7.65;59.77;94856.53;4190359;28;20287;-69
2024/02/05 00:09:41;;;;;;;12.43;8.40;;;;;;;7.75;59.65;94836.50;4160310;28;20113;-68
2024/02/05 00:11:42;;;;;;;12.38;8.55;;;;;;;7.85;59.72;94835.66;4167254;28;20038;-71
2024/02/05 00:13:44;;;;;;;14.15;9.77;;;;;;;7.89;59.13;94834.44;4160032;28;20480;-68
2024/02/05 00:15:47;;;;;;;14.05;10.55;;;;;;;7.95;59.24;94826.88;4155608;28;20492;-68
2024/02/05 00:17:49;;;;;;;16.42;11.13;;;;;;;7.98;58.83;94842.25;4145070;28;20058;-68
2024/02/05 00:19:51;;;;;;;14.48;11.23;;;;;;;8.04;58.70;94840.84;4180668;28;20044;-68
2024/02/05 00:21:53;;;;;;;16.67;11.20;;;;;;;8.08;59.02;94831.78;4164483;28;20147;-69
2024/02/05 00:23:55;;;;;;;16.42;11.93;;;;;;;8.09;58.53;94836.06;4173870;28;20100;-70
2024/02/05 00:25:57;;;;;;;17.38;12.05;;;;;;;8.11;58.20;94835.91;4161503;28;20088;-68
2024/02/05 00:27:59;;;;;;;17.55;12.10;;;;;;;8.13;58.43;94839.19;4174984;28;20048;-68
2024/02/05 00:30:01;;;;;;;17.73;11.55;;;;;;;8.10;58.66;94840.31;4170927;28;20423;-68
2024/02/05 00:32:03;;;;;;;16.45;11.48;;;;;;;8.12;58.90;94835.78;4149675;28;20337;-68
2024/02/05 00:34:05;;;;;;;22.65;11.35;;;;;;;8.10;58.79;94842.09;4155284;28;20041;-68
2024/02/05 00:36:08;;;;;;;17.15;12.70;;;;;;;8.07;58.49;94822.34;4182297;28;20484;-68
2024/02/05 00:38:09;;;;;;;19.27;13.63;;;;;;;7.99;59.01;94830.03;4174908;28;20045;-68
2024/02/05 00:40:12;;;;;;;19.27;12.32;;;;;;;7.96;58.80;94822.50;4158179;28;20057;-67
2024/02/05 00:42:14;;;;;;;15.32;11.35;;;;;;;7.85;59.12;94814.81;4172420;28;20059;-67
2024/02/05 00:44:16;;;;;;;18.17;12.57;;;;;;;7.78;59.58;94812.75;4165793;28;20041;-69
2024/02/05 00:46:23;;;;;;;18.90;12.50;;;;;;;7.71;59.71;94823.88;4158107;28;20076;-70
2024/02/05 00:48:25;;;;;;;17.17;12.32;;;;;;;7.66;59.86;94816.47;4175092;28;20151;-69
2024/02/05 00:50:27;;;;;;;16.35;11.75;;;;;;;7.64;60.05;94805.38;4178061;28;20063;-68
2024/02/05 00:52:29;;;;;;;17.33;11.48;;;;;;;7.61;60.32;94815.25;4164037;28;20053;-69
2024/02/05 00:54:32;;;;;;;14.40;11.15;;;;;;;7.61;60.27;94818.66;4181892;28;20041;-67
2024/02/05 00:56:35;;;;;;;17.63;10.93;;;;;;;7.68;60.34;94809.34;4186627;28;20412;-67
2024/02/05 00:58:37;;;;;;;15.77;11.60;;;;;;;7.73;60.18;94808.94;4153012;28;20454;-68
2024/02/05 01:00:40;;;;;;;16.27;11.55;;;;;;;7.76;59.37;94796.41;4156055;28;20503;-67
2024/02/05 01:02:42;;;;;;;16.63;11.35;;;;;;;7.69;59.60;94795.34;4167057;28;20136;-67
2024/02/05 01:04:43;;;;;;;16.13;11.48;;;;;;;7.67;60.06;94818.13;4168292;28;20049;-68
2024/02/05 01:06:45;;;;;;;17.60;11.45;;;;;;;7.56;60.28;94807.84;4184332;28;20044;-66
2024/02/05 01:08:47;;;;;;;16.00;11.63;;;;;;;7.57;60.31;94809.47;4183111;28;20123;-68
2024/02/05 01:10:49;;;;;;;15.10;11.60;;;;;;;7.47;60.47;94798.25;4180079;28;20923;-69
2024/02/05 01:12:51;;;;;;;15.57;11.32;;;;;;;7.48;60.92;94799.88;4175170;28;20494;-69
2024/02/05 01:14:53;;;;;;;17.08;13.00;;;;;;;7.47;60.67;94793.84;4159768;28;20472;-70
2024/02/05 01:16:55;;;;;;;18.63;12.43;;;;;;;7.48;60.52;94792.06;4180965;28;20067;-69
2024/02/05 01:18:57;;;;;;;17.77;12.40;;;;;;;7.36;60.99;94792.19;4183890;28;20068;-67
2024/02/05 01:20:59;;;;;;;16.25;11.88;;;;;;;7.37;61.07;94785.19;4185801;28;20333;-70
2024/02/05 01:23:00;;;;;;;16.52;10.75;;;;;;;7.37;61.14;94786.00;4171115;28;20053;-69
2024/02/05 01:25:04;;;;;;;15.65;10.98;;;;;;;7.45;60.97;94781.91;4165640;28;20154;-67
2024/02/05 01:27:07;;;;;;;14.65;10.95;;;;;;;7.47;60.52;94777.41;4157852;28;20056;-70
2024/02/05 01:29:09;;;;;;;14.43;10.98;;;;;;;7.45;60.78;94771.50;4182839;28;20480;-69
2024/02/05 01:31:10;;;;;;;15.25;10.82;;;;;;;7.44;60.91;94767.22;4161271;28;20049;-68
2024/02/05 01:33:12;;;;;;;18.00;10.57;;;;;;;7.45;60.69;94784.53;4153207;28;20534;-67
2024/02/05 01:35:14;;;;;;;15.52;11.50;;;;;;;7.42;60.68;94767.38;4160534;28;20104;-66
2024/02/05 01:37:17;;;;;;;17.83;11.50;;;;;;;7.44;61.00;94765.44;4176884;28;20063;-67
2024/02/05 01:39:19;;;;;;;17.88;11.55;;;;;;;7.39;61.12;94759.81;4166184;28;20052;-68
2024/02/05 01:41:21;;;;;;;15.25;11.35;;;;;;;7.20;62.20;94749.41;4181860;28;20219;-70
2024/02/05 01:43:23;;;;;;;17.60;10.90;;;;;;;7.22;61.78;94747.50;4157132;28;20055;-68
2024/02/05 01:45:25;;;;;;;15.68;12.07;;;;;;;7.27;61.30;94735.72;4173343;28;20059;-68
2024/02/05 01:47:27;;;;;;;17.48;12.05;;;;;;;7.22;61.47;94735.28;4175530;28;20099;-67
2024/02/05 01:49:29;;;;;;;16.80;12.52;;;;;;;7.02;61.84;94725.84;4158043;28;20525;-68
2024/02/05 01:51:34;;;;;;;16.00;11.73;;;;;;;6.96;62.67;94720.19;4173054;28;20345;-67
2024/02/05 01:53:37;;;;;;;18.42;10.85;;;;;;;6.93;62.49;94724.88;4174494;28;20104;-65
2024/02/05 01:55:40;;;;;;;14.85;11.40;;;;;;;6.99;62.63;94724.31;4158062;28;20100;-70
2024/02/05 01:57:42;;;;;;;14.30;11.02;;;;;;;6.99;62.06;94734.75;4172566;28;20051;-69
2024/02/05 01:59:44;;;;;;;14.38;10.73;;;;;;;6.97;62.06;94734.06;4160823;28;20531;-69
2024/02/05 02:01:46;;;;;;;15.57;11.10;;;;;;;6.89;63.05;94720.88;4148410;28;20061;-67
2024/02/05 02:03:49;;;;;;;14.63;10.82;;;;;;;6.94;62.56;94737.72;4176579;28;20488;-68
2024/02/05 02:05:51;;;;;;;15.98;10.20;;;;;;;6.89;62.39;94729.50;4180098;28;20045;-67
2024/02/05 02:07:53;;;;;;;14.18;10.20;;;;;;;6.40;63.57;94736.41;4183257;28;20072;-68
2024/02/05 02:09:55;;;;;;;17.48;10.52;;;;;;;6.18;64.60;94700.19;4161115;28;20048;-69
2024/02/05 02:11:57;;;;;;;11.95;9.27;;;;;;;6.28;64.39;94706.22;4173582;28;20044;-67
2024/02/05 02:13:59;;;;;;;13.98;9.73;;;;;;;6.15;64.18;94711.66;4177990;28;20092;-68
2024/02/05 02:16:07;;;;;;;15.10;9.68;;;;;;;5.61;66.71;94705.78;4175631;28;20051;-68
2024/02/05 02:18:10;;;;;;;13.77;9.30;;;;;;;5.70;66.25;94673.00;4171610;28;20488;-69
2024/02/05 02:20:12;;;;;;;15.65;9.98;;;;;;;5.90;66.26;94689.53;4173600;28;20061;-68
2024/02/05 02:22:14;;;;;;;12.07;9.23;;;;;;;6.02;64.89;94685.88;4159216;28;20094;-69
2024/02/05 02:24:16;;;;;;;13.88;9.13;;;;;;;5.97;65.03;94711.47;4183567;28;20045;-69
2024/02/05 02:26:18;;;;;;;12.48;8.77;;;;;;;6.02;65.21;94701.50;4190059;28;20056;-69
2024/02/05 02:28:20;;;;;;;17.10;9.32;;;;;;;6.06;65.35;94700.28;4156971;28;20072;-68
2024/02/05 02:30:22;;;;;;;11.57;8.95;;;;;;;6.01;64.71;94706.84;4165393;28;20053;-69
2024/02/05 02:32:56;;;;;;;10.98;8.52;;;;;;;5.69;66.16;94668.78;4167538;28;20060;-68
2024/02/05 02:35:01;;;;;;;12.93;8.90;;;;;;;5.80;65.46;94670.47;4183214;28;20044;-68
2024/02/05 02:37:05;;;;;;;16.27;9.88;;;;;;;5.73;65.52;94664.97;4163481;28;20067;-68
2024/02/05 02:39:15;;;;;;;8.80;6.30;;;;;;;5.66;65.40;94659.47;4162163;28;20144;-68
2024/02/05 02:41:28;;;;;;;13.30;9.10;;;;;;;5.96;65.05;94650.03;4160867;28;20089;-67
2024/02/05 02:43:37;;;;;;;12.93;9.55;;;;;;;5.89;65.20;94669.66;4164371;28;20066;-69
2024/02/05 02:45:39;;;;;;;15.07;9.98;;;;;;;5.78;65.62;94680.16;4183123;28;20053;-67
2024/02/05 02:47:41;;;;;;;13.73;9.80;;;;;;;5.89;65.74;94680.06;4170414;28;20583;-69
2024/02/05 02:49:43;;;;;;;14.57;10.05;;;;;;;6.09;65.39;94661.03;4163791;28;20719;-68
2024/02/05 02:51:45;;;;;;;14.07;9.80;;;;;;;6.06;64.35;94687.28;4167058;28;20080;-69
2024/02/05 02:53:47;;;;;;;14.20;9.75;;;;;;;5.81;65.72;94665.13;4176401;28;20400;-67
2024/02/05 02:55:50;;;;;;;13.18;9.77;;;;;;;5.88;66.00;94663.66;4184745;28;20646;-68
2024/02/05 02:57:52;;;;;;;15.57;9.70;;;;;;;5.98;65.19;94652.47;4162523;28;20167;-69
2024/02/05 02:59:54;;;;;;;14.07;10.27;;;;;;;6.06;65.15;94660.44;4181930;28;20045;-69
2024/02/05 03:01:56;;;;;;;16.42;10.45;;;;;;;6.06;64.86;94656.06;4149501;28;20045;-68
2024/02/05 03:03:58;;;;;;;16.52;10.07;;;;;;;5.76;65.81;94664.69;4177160;28;20041;-68
2024/02/05 03:06:01;;;;;;;12.35;9.75;;;;;;;5.55;66.92;94656.97;4172941;28;20176;-69
2024/02/05 03:08:03;;;;;;;13.57;10.23;;;;;;;5.23;67.42;94673.44;4168039;28;20532;-68
2024/02/05 03:10:06;;;;;;;16.15;11.15;;;;;;;4.88;68.86;94648.63;4160755;28;20056;-69
2024/02/05 03:12:08;;;;;;;12.98;9.95;;;;;;;5.09;68.47;94673.75;4158789;28;20045;-69
2024/02/05 03:14:10;;;;;;;15.13;10.25;;;;;;;5.29;68.02;94662.56;4161997;28;20049;-67
2024/02/05 03:16:12;;;;;;;12.32;9.43;;;;;;;5.47;67.14;94662.78;4181151;28;20127;-69
2024/02/05 03:18:14;;;;;;;14.40;10.52;;;;;;;5.23;67.83;94668.25;4175842;28;20119;-68
2024/02/05 03:20:37;;;;;;;12.07;9.40;;;;;;;5.41;67.58;94654.69;4158639;28;20042;-69
2024/02/05 03:22:39;;;;;;;14.35;9.20;;;;;;;5.51;66.58;94665.97;4169142;28;20079;-69
2024/02/05 03:24:41;;;;;;;13.18;9.10;;;;;;;5.59;66.24;94652.31;4181009;28;20273;-69
2024/02/05 03:26:43;;;;;;;14.43;9.85;;;;;;;5.68;65.81;94661.94;4180512;28;20519;-70
2024/02/05 03:28:45;;;;;;;14.23;8.98;;;;;;;5.81;65.20;94633.09;4169951;28;20048;-69
2024/02/05 03:30:47;;;;;;;14.30;9.30;;;;;;;5.65;65.05;94646.59;4156162;28;20598;-68
2024/02/05 03:32:49;;;;;;;12.75;8.77;;;;;;;5.66;65.66;94645.66;4173152;28;20404;-69
2024/02/05 03:34:51;;;;;;;11.63;8.93;;;;;;;5.79;65.38;94651.44;4149672;28;20046;-67
2024/02/05 03:36:54;;;;;;;12.55;9.00;;;;;;;5.79;65.10;94648.03;4175081;28;20056;-69
2024/02/05 03:38:55;;;;;;;11.75;8.95;;;;;;;5.81;64.79;94646.09;4176748;28;20132;-70
2024/02/05 03:40:57;;;;;;;14.25;9.20;;;;;;;5.87;64.63;94645.56;4161520;28;20108;-71
2024/02/05 03:42:59;;;;;;;13.90;7.97;;;;;;;5.91;64.77;94652.16;4161415;28;20056;-68
2024/02/05 03:45:01;;;;;;;11.50;8.07;;;;;;;6.03;64.33;94643.34;4159891;28;20195;-70
2024/02/05 03:47:03;;;;;;;11.82;7.60;;;;;;;6.04;63.39;94651.97;4175752;28;20053;-69
2024/02/05 03:49:04;;;;;;;10.30;7.13;;;;;;;6.11;63.63;94658.28;4188378;28;20052;-66
2024/02/05 03:51:06;;;;;;;11.68;8.23;;;;;;;5.90;63.89;94661.75;4151254;28;20292;-69
2024/02/05 03:53:08;;;;;;;11.38;7.72;;;;;;;5.60;65.13;94657.38;4165094;28;20057;-67
2024/02/05 03:55:11;;;;;;;12.52;8.32;;;;;;;5.73;65.04;94675.34;4179433;28;20049;-68
2024/02/05 03:57:14;;;;;;;11.10;8.70;;;;;;;5.91;64.28;94678.97;4176784;28;20300;-68
2024/02/05 03:59:16;;;;;;;10.65;7.82;;;;;;;6.01;63.96;94678.25;4184174;28;20041;-67
2024/02/05 04:01:18;;;;;;;11.45;7.72;;;;;;;5.98;64.12;94679.34;4161861;28;20130;-67
2024/02/05 04:03:20;;;;;;;11.93;7.68;;;;;;;6.08;63.75;94676.75;4152014;28;20045;-68
2024/02/05 04:05:25;;;;;;;13.27;7.55;;;;;;;6.21;63.28;94679.13;4148301;28;20243;-68
2024/02/05 04:07:26;;;;;;;11.15;7.60;;;;;;;6.13;63.59;94687.56;4176336;28;20566;-71
2024/02/05 04:09:28;;;;;;;11.38;7.75;;;;;;;6.15;63.19;94686.50;4181395;28;20048;-68
2024/02/05 04:11:30;;;;;;;11.88;8.35;;;;;;;6.26;63.62;94689.94;4183562;28;20132;-68
2024/02/05 04:13:32;;;;;;;10.75;7.32;;;;;;;6.32;62.96;94687.66;4163737;28;20464;-68
2024/02/05 04:15:34;;;;;;;12.32;7.35;;;;;;;6.42;62.31;94686.84;4154137;28;20462;-68
2024/02/05 04:17:36;;;;;;;11.27;7.47;;;;;;;6.50;62.43;94693.03;4178712;28;20214;-67
2024/02/05 04:19:43;;;;;;;14.40;7.50;;;;;;;6.46;61.85;94685.63;4167689;28;20099;-67
2024/02/05 04:21:45;;;;;;;11.98;7.43;;;;;;;6.39;62.15;94697.50;4158540;28;20052;-68
2024/02/05 04:23:47;;;;;;;10.73;7.47;;;;;;;6.38;62.58;94696.69;4174166;28;20448;-66
2024/02/05 04:25:49;;;;;;;10.82;7.43;;;;;;;6.39;62.36;94703.53;4165973;28;20805;-68
2024/02/05 04:27:51;;;;;;;10.35;7.75;;;;;;;6.28;62.17;94691.47;4159188;28;20041;-68
2024/02/05 04:29:55;;;;;;;10.95;7.05;;;;;;;6.29;62.22;94707.91;4181831;28;20059;-67
2024/02/05 04:31:58;;;;;;;9.20;6.80;;;;;;;6.29;62.31;94716.50;4183029;28;20048;-69
2024/02/05 04:34:00;;;;;;;13.48;7.05;;;;;;;6.35;62.05;94722.97;4169041;28;20152;-67
2024/02/05 04:36:01;;;;;;;10.50;7.10;;;;;;;6.21;62.26;94718.13;4164098;28;20049;-68
2024/02/05 04:38:03;;;;;;;11.07;6.75;;;;;;;6.27;62.14;94722.81;4158327;28;20054;-69
2024/02/05 04:40:06;;;;;;;13.98;7.38;;;;;;;6.29;61.98;94728.72;4186937;28;20053;-69
2024/02/05 04:42:08;;;;;;;12.70;6.70;;;;;;;6.38;62.06;94727.91;4177322;28;20067;-69
2024/02/05 04:44:10;;;;;;;10.68;7.10;;;;;;;6.40;61.94;94713.00;4179226;28;20063;-69
2024/02/05 04:46:11;;;;;;;11.40;6.90;;;;;;;6.40;61.71;94719.97;4160113;28;20473;-68
2024/02/05 04:48:19;;;;;;;11.18;6.97;;;;;;;6.41;61.33;94726.81;4149935;28;20137;-67
2024/02/05 04:50:21;;;;;;;9.75;6.65;;;;;;;6.30;61.62;94714.72;4177523;28;20973;-68
2024/02/05 04:52:23;;;;;;;8.73;6.43;;;;;;;6.30;62.11;94736.38;4162184;28;20495;-68
2024/02/05 04:54:25;;;;;;;8.90;6.55;;;;;;;6.37;61.70;94731.47;4176832;28;20384;-69
2024/02/05 04:56:27;;;;;;;9.35;6.70;;;;;;;6.46;61.39;94722.88;4157791;28;20124;-70
2024/02/05 04:58:29;;;;;;;9.98;6.70;;;;;;;6.51;61.44;94723.28;4177147;28;20049;-70
2024/02/05 05:00:31;;;;;;;10.65;6.57;;;;;;;6.53;61.16;94702.34;4169715;28;20510;-70
2024/02/05 05:02:33;;;;;;;10.50;6.78;;;;;;;6.52;61.24;94726.72;4184600;28;20219;-70
2024/02/05 05:04:36;;;;;;;9.77;7.15;;;;;;;6.48;60.88;94720.13;4156326;28;20060;-70
2024/02/05 05:06:38;;;;;;;9.73;6.70;;;;;;;6.10;62.27;94730.28;4185223;28;20103;-69
2024/02/05 05:08:40;;;;;;;12.85;6.63;;;;;;;6.08;62.80;94746.97;4183610;28;20048;-70
2024/02/05 05:10:42;;;;;;;8.73;6.72;;;;;;;6.07;62.77;94729.72;4175913;28;20084;-69
2024/02/05 05:12:44;;;;;;;12.13;6.93;;;;;;;6.14;62.64;94723.84;4177284;28;20664;-71
2024/02/05 05:14:46;;;;;;;8.82;6.88;;;;;;;6.27;62.52;94738.41;4160487;28;20470;-70
2024/02/05 05:16:47;;;;;;;10.80;6.65;;;;;;;6.04;62.48;94741.19;4188681;28;20048;-69
2024/02/05 05:18:49;;;;;;;11.02;6.82;;;;;;;5.85;63.25;94746.28;4185461;28;20180;-68
2024/02/05 05:20:51;;;;;;;10.43;7.03;;;;;;;5.90;63.21;94738.94;4161528;28;20049;-69
2024/02/05 05:22:53;;;;;;;11.35;7.05;;;;;;;6.00;62.71;94733.78;4167459;28;20056;-72
2024/02/05 05:24:55;;;;;;;10.25;6.90;;;;;;;6.14;62.72;94746.44;4181008;28;20529;-68
2024/02/05 05:26:58;;;;;;;8.75;6.28;;;;;;;6.21;62.63;94731.13;4158527;28;20119;-71
2024/02/05 05:29:00;;;;;;;12.57;7.43;;;;;;;5.90;62.53;94746.72;4187930;28;20048;-68
2024/02/05 05:31:02;;;;;;;10.90;6.38;;;;;;;6.01;63.18;94753.66;4184862;28;20188;-69
2024/02/05 05:33:04;;;;;;;14.52;8.25;;;;;;;6.03;62.56;94762.16;4180744;28;20053;-71
2024/02/05 05:35:07;;;;;;;9.13;7.10;;;;;;;5.68;63.67;94756.31;4183141;28;20043;-70
2024/02/05 05:37:13;;;;;;;11.18;7.38;;;;;;;5.77;64.24;94774.72;4183925;28;20045;-70
2024/02/05 05:39:15;;;;;;;10.77;7.05;;;;;;;5.92;63.80;94769.03;4169278;28;20073;-71
2024/02/05 05:41:17;;;;;;;11.60;7.30;;;;;;;5.85;63.20;94780.91;4178835;28;20484;-70
2024/02/05 05:43:19;;;;;;;13.80;7.97;;;;;;;5.97;62.98;94783.47;4159810;28;20050;-68
2024/02/05 05:45:21;;;;;;;17.00;7.75;;;;;;;6.04;62.65;94777.59;4179263;28;20087;-70
2024/02/05 05:47:23;;;;;;;13.85;7.88;;;;;;;6.12;62.71;94793.38;4161819;28;20160;-69
2024/02/05 05:49:25;;;;;;;14.25;8.02;;;;;;;6.21;62.65;94772.75;4188416;28;20107;-69
2024/02/05 05:51:27;;;;;;;13.55;7.55;;;;;;;6.23;62.18;94776.06;4181641;28;20045;-70
2024/02/05 05:53:29;;;;;;;13.82;8.15;;;;;;;6.33;62.18;94777.75;4180124;28;20083;-69
2024/02/05 05:55:31;;;;;;;17.00;9.52;;;;;;;6.31;61.91;94771.03;4188237;28;20055;-70
2024/02/05 05:57:33;;;;;;;15.13;7.15;;;;;;;6.34;62.31;94773.34;4181274;28;20119;-71
2024/02/05 05:59:38;;;;;;;13.93;7.97;;;;;;;6.40;61.99;94775.44;4162567;28;20056;-70
2024/02/05 06:01:40;;;;;;;12.77;7.93;;;;;;;6.20;62.26;94784.13;4164923;28;20072;-69
2024/02/05 06:03:43;;;;;;;10.25;7.30;;;;;;;6.23;62.50;94779.47;4137783;28;20552;-72
2024/02/05 06:05:47;;;;;;;8.88;6.57;;;;;;;6.29;62.00;94760.75;4184245;28;20069;-71
2024/02/05 06:07:49;;;;;;;9.82;6.80;;;;;;;6.37;61.94;94767.91;4180247;28;20555;-70
2024/02/05 06:09:51;;;;;;;8.85;6.38;;;;;;;6.47;61.55;94766.13;4191304;28;20053;-70
2024/02/05 06:11:53;;;;;;;14.88;7.05;;;;;;;6.54;61.41;94759.47;4182368;28;20044;-70
2024/02/05 06:13:55;;;;;;;11.82;6.80;;;;;;;6.40;61.79;94754.63;4187475;28;20044;-72
2024/02/05 06:15:57;;;;;;;14.10;7.68;;;;;;;6.51;61.76;94764.09;4178915;28;20041;-71
2024/02/05 06:17:59;;;;;;;12.07;7.80;;;;;;;6.56;61.62;94770.56;4182087;28;20432;-71
2024/02/05 06:20:02;;;;;;;13.77;7.95;;;;;;;6.64;61.24;94782.09;4183779;28;20053;-71
2024/02/05 06:22:04;;;;;;;10.05;6.93;;;;;;;6.71;60.89;94784.03;4158218;28;20053;-70
2024/02/05 06:24:06;;;;;;;16.25;7.50;;;;;;;6.69;60.77;94792.91;4175781;28;20053;-71
2024/02/05 06:26:10;;;;;;;12.02;7.65;;;;;;;6.48;60.89;94791.22;4177960;28;20448;-70
2024/02/05 06:28:13;;;;;;;11.05;7.15;;;;;;;6.48;61.33;94780.81;4184885;28;20041;-70
2024/02/05 06:30:15;;;;;;;12.07;6.82;;;;;;;6.32;61.27;94790.88;4184381;28;20613;-71
2024/02/05 06:32:17;;;;;;;10.50;6.90;;;;;;;6.03;62.06;94807.19;4175343;28;20385;-70
2024/02/05 06:34:18;;;;;;;9.73;6.63;;;;;;;6.05;62.17;94805.28;4185148;28;20053;-69
2024/02/05 06:36:20;;;;;;;10.02;7.07;;;;;;;6.22;62.10;94801.25;4170169;28;20403;-71
2024/02/05 06:38:22;;;;;;;10.27;6.28;;;;;;;6.13;62.00;94797.66;4180833;28;20459;-71
2024/02/05 06:40:24;;;;;;;17.08;8.02;;;;;;;6.15;61.79;94798.34;4154359;28;20108;-71
2024/02/05 06:42:26;;;;;;;13.55;7.47;;;;;;;6.29;62.08;94791.16;4184801;28;20380;-69
2024/02/05 06:44:28;;;;;;;10.77;7.55;;;;;;;6.54;61.49;94800.28;4184682;28;20053;-71
2024/02/05 06:46:30;;;;;;;11.55;7.18;;;;;;;6.76;60.43;94804.47;4168103;28;20125;-71
2024/02/05 06:48:34;;;;;;;11.38;7.22;;;;;;;6.92;60.15;94803.94;4176793;28;20057;-71
2024/02/05 06:50:36;;;;;;;13.45;7.10;;;;;;;6.99;59.81;94805.06;4183605;28;20566;-71
2024/02/05 06:52:38;;;;;;;14.52;7.53;;;;;;;7.18;59.40;94791.22;4175986;28;20057;-71
2024/02/05 06:54:40;;;;;;;14.80;7.32;;;;;;;7.34;59.87;94786.31;4187986;28;20395;-70
2024/02/05 06:56:42;;;;;;;14.93;8.05;;;;;;;7.46;58.79;94786.16;4176167;28;20119;-70
2024/02/05 06:58:44;;;;;;;10.60;7.10;;;;;;;7.56;58.02;94785.19;4174242;28;20133;-69
2024/02/05 07:00:46;;;;;;;11.75;7.38;;;;;;;7.64;57.91;94783.69;4158734;28;20104;-70
2024/02/05 07:02:50;;;;;;;18.00;8.02;;;;;;;7.77;57.51;94784.22;4177177;28;20433;-70
2024/02/05 07:04:51;;;;;;;26.88;7.90;;;;;;;7.84;57.95;94781.88;4182211;28;20060;-70
2024/02/05 07:06:53;;;;;;;24.92;8.48;;;;;;;7.90;57.53;94781.31;4162388;28;20040;-71
2024/02/05 07:08:56;;;;;;;24.10;8.60;;;;;;;7.97;57.83;94785.81;4144625;28;20678;-71
2024/02/05 07:10:57;;;;;;;23.50;9.07;;;;;;;7.97;56.59;94796.25;4179776;28;20455;-71
2024/02/05 07:12:59;;;;;;;18.10;8.25;;;;;;;7.70;56.93;94783.97;4164545;28;20049;-71
2024/02/05 07:15:01;;;;;;;22.85;9.50;;;;;;;7.58;57.93;94787.66;4179468;28;20045;-71
2024/02/05 07:17:03;;;;;;;16.98;9.50;;;;;;;7.38;58.29;94800.72;4176268;28;20099;-71
2024/02/05 07:19:05;;;;;;;16.30;8.73;;;;;;;7.51;58.06;94799.63;4177251;28;20056;-71
2024/02/05 07:21:07;;;;;;;14.57;10.10;;;;;;;7.58;58.20;94798.09;4178739;28;20468;-72
2024/02/05 07:23:09;;;;;;;18.88;10.25;;;;;;;7.57;57.22;94802.50;4144956;28;20041;-71
2024/02/05 07:25:11;;;;;;;17.00;10.50;;;;;;;7.52;57.27;94786.44;4173434;28;20136;-71
2024/02/05 07:27:13;;;;;;;19.75;10.40;;;;;;;7.41;57.66;94790.97;4178061;28;20047;-72
2024/02/05 07:29:15;;;;;;;26.38;11.15;;;;;;;7.29;58.00;94804.16;4170557;28;20060;-70
2024/02/05 07:31:17;;;;;;;22.65;10.57;;;;;;;7.50;58.22;94795.34;4162230;28;20076;-71
2024/02/05 07:33:20;;;;;;;24.38;12.20;;;;;;;7.57;57.74;94794.66;4174495;28;20163;-72
2024/02/05 07:35:23;;;;;;;26.80;12.48;;;;;;;7.78;57.76;94788.47;4169585;28;20061;-69
2024/02/05 07:37:25;;;;;;;26.70;12.35;;;;;;;8.03;56.77;94796.66;4186732;28;20160;-70
2024/02/05 07:39:27;;;;;;;36.78;13.75;;;;;;;8.21;55.46;94787.13;4178458;28;20049;-70
2024/02/05 07:41:29;;;;;;;24.55;12.60;;;;;;;8.34;55.63;94802.47;4170064;28;20136;-69
2024/02/05 07:43:31;;;;;;;28.17;13.30;;;;;;;8.42;55.51;94800.00;4166299;28;20080;-68
2024/02/05 07:45:33;;;;;;;40.47;14.52;;;;;;;8.50;55.26;94794.88;4181483;28;20064;-71
2024/02/05 07:47:35;;;;;;;39.53;14.80;;;;;;;8.60;55.28;94798.28;4155494;28;20451;-71
2024/02/05 07:49:39;;;;;;;26.25;13.02;;;;;;;8.70;54.92;94784.34;4174879;28;20048;-69
2024/02/05 07:51:43;;;;;;;37.60;14.05;;;;;;;8.72;55.10;94790.25;4178016;28;20072;-69
2024/02/05 07:53:45;;;;;;;33.10;12.75;;;;;;;8.79;55.00;94788.69;4186519;28;20048;-71
2024/02/05 07:55:47;;;;;;;26.63;12.63;;;;;;;8.79;54.73;94791.31;4143709;28;20483;-70
2024/02/05 07:57:49;;;;;;;26.08;12.10;;;;;;;8.90;54.02;94785.88;4178736;28;20084;-70
2024/02/05 07:59:50;;;;;;;29.65;13.25;;;;;;;8.91;53.79;94790.16;4167855;28;20057;-69
2024/02/05 08:01:52;;;;;;;31.92;11.80;;;;;;;8.89;54.35;94786.84;4159013;28;20052;-70
2024/02/05 08:03:54;;;;;;;29.42;12.35;;;;;;;8.96;54.16;94785.28;4166784;28;20073;-71
2024/02/05 08:05:56;;;;;;;24.80;12.55;;;;;;;9.09;53.88;94776.28;4184350;28;20044;-72
2024/02/05 08:07:58;;;;;;;28.63;12.32;;;;;;;9.21;53.72;94780.34;4177674;28;20384;-70
2024/02/05 08:10:00;;;;;;;22.27;12.02;;;;;;;8.91;53.53;94774.47;4186303;28;20439;-71
2024/02/05 08:12:02;;;;;;;28.67;11.40;;;;;;;8.97;53.74;94771.28;4176620;28;20518;-70
2024/02/05 08:14:06;;;;;;;21.77;12.13;;;;;;;9.14;54.44;94764.44;4178122;28;20403;-71
2024/02/05 08:16:08;;;;;;;24.00;10.63;;;;;;;9.09;52.23;94778.91;4160490;28;20591;-71
2024/02/05 08:18:10;;;;;;;25.70;11.52;;;;;;;9.31;51.85;94783.69;4186241;28;20082;-71
2024/02/05 08:20:13;;;;;;;28.50;10.90;;;;;;;9.32;51.95;94774.88;4160460;28;20432;-71
2024/02/05 08:22:15;;;;;;;26.23;10.80;;;;;;;9.51;51.42;94775.72;4175107;28;20064;-71
2024/02/05 08:24:18;;;;;;;30.23;10.70;;;;;;;9.61;50.97;94771.19;4157949;28;20140;-72
2024/02/05 08:26:20;;;;;;;16.02;7.10;;;;;;;9.90;48.65;94775.34;4175427;28;20476;-71
2024/02/05 08:28:21;;;;;;;25.05;8.00;;;;;;;10.14;48.75;94772.88;4160933;28;20408;-72
2024/02/05 08:30:23;;;;;;;25.63;9.18;;;;;;;10.24;49.02;94785.88;4156233;28;20092;-71
2024/02/05 08:32:25;;;;;;;28.33;10.30;;;;;;;10.43;48.66;94766.50;4158722;28;20084;-71
2024/02/05 08:34:28;;;;;;;29.33;10.80;;;;;;;10.63;48.45;94773.16;4159984;28;20049;-72
2024/02/05 08:36:32;;;;;;;26.67;10.85;;;;;;;10.62;48.18;94763.66;4181231;28;20911;-71
2024/02/05 08:38:34;;;;;;;30.40;11.07;;;;;;;10.43;49.15;94769.13;4165680;28;20221;-71
2024/02/05 08:40:37;;;;;;;22.48;9.27;;;;;;;10.45;48.66;94772.41;4137833;28;20154;-72
2024/02/05 08:42:40;;;;;;;23.17;9.43;;;;;;;10.51;48.59;94777.03;4167796;28;20080;-72
2024/02/05 08:44:43;;;;;;;21.05;9.80;;;;;;;10.40;48.27;94765.03;4177185;28;20059;-73
2024/02/05 08:46:45;;;;;;;21.40;8.23;;;;;;;10.66;48.15;94779.88;4172325;28;20052;-72
2024/02/05 08:48:47;;;;;;;18.02;7.55;;;;;;;10.78;47.47;94776.00;4185939;28;20131;-71
2024/02/05 08:50:49;;;;;;;35.58;10.50;;;;;;;10.96;47.56;94761.97;4175804;28;20052;-72
2024/02/05 08:52:51;;;;;;;20.52;8.23;;;;;;;11.06;47.40;94773.16;4169964;28;20048;-73
2024/02/05 08:54:53;;;;;;;17.52;7.05;;;;;;;10.93;46.93;94773.63;4177220;28;20128;-71
2024/02/05 08:56:55;;;;;;;20.98;8.68;;;;;;;10.73;47.47;94762.53;4181517;28;20041;-71
2024/02/05 08:58:57;;;;;;;15.00;5.47;;;;;;;10.80;46.74;94773.25;4183233;28;20048;-70
2024/02/05 09:00:58;;;;;;;22.83;8.32;;;;;;;11.00;47.08;94779.84;4178729;28;20369;-72
2024/02/05 09:03:02;;;;;;;19.45;7.20;;;;;;;11.26;46.75;94784.16;4161351;28;20088;-70
2024/02/05 09:05:08;;;;;;;25.45;11.40;;;;;;;11.35;46.58;94764.84;4189852;28;20055;-71
2024/02/05 09:07:10;;;;;;;23.20;9.18;;;;;;;11.38;45.77;94750.56;4190790;28;20064;-71
2024/02/05 09:09:12;;;;;;;18.60;8.80;;;;;;;11.53;45.52;94748.13;4184639;28;20151;-72
2024/02/05 09:11:15;;;;;;;23.13;7.85;;;;;;;11.59;46.38;94736.97;4188439;28;20048;-72
2024/02/05 09:13:18;;;;;;;16.38;8.52;;;;;;;11.51;45.80;94748.31;4159690;28;20057;-71
2024/02/05 09:15:21;;;;;;;23.27;8.60;;;;;;;11.47;46.65;94760.91;4179685;28;20048;-70
2024/02/05 09:17:23;;;;;;;22.92;10.70;;;;;;;11.40;47.18;94749.44;4180423;28;20140;-71
2024/02/05 09:19:25;;;;;;;24.67;8.82;;;;;;;11.31;47.60;94753.03;4190127;28;20098;-70
2024/02/05 09:21:27;;;;;;;25.73;7.82;;;;;;;11.38;47.66;94747.94;4165526;28;20060;-71
2024/02/05 09:23:29;;;;;;;15.82;8.10;;;;;;;11.44;47.08;94749.94;4184963;28;20111;-70
2024/02/05 09:25:31;;;;;;;24.85;12.70;;;;;;;11.56;47.44;94759.13;4144024;28;20054;-72
2024/02/05 09:27:33;;;;;;;27.77;9.90;;;;;;;11.75;47.01;94750.09;4185345;28;20049;-72
2024/02/05 09:29:34;;;;;;;19.40;6.72;;;;;;;11.75;47.13;94746.66;4150233;28;20045;-72
2024/02/05 09:31:36;;;;;;;13.60;7.05;;;;;;;11.76;47.50;94756.16;4179558;28;20448;-72
2024/02/05 09:33:38;;;;;;;10.73;5.10;;;;;;;12.03;43.96;94747.97;4150044;28;20046;-73